Terminal Aerodrome Forecast
Issued by NWS Charleston, WV

Current Version | Previous Version | Text Only | Print | Product List | Glossary Off
Versions: 1 2 3 4 5 6 7 8 9 10 11 12 13 14 15 16 17 18 19 20 21 22 23 24 25

941
FTUS41 KRLX 200858 AAA
TAFCRW
TAF AMD
KCRW 200858Z 2009/2106 12004KT 6SM -RA SCT025 OVC040
      TEMPO 2011/2014 3SM -RA BR OVC025
     FM201600 19006KT P6SM OVC040
     FM201800 22007KT P6SM BKN040
     FM202300 19004KT P6SM SCT040=

USA.gov is the U.S. government's official web portal to all federal, state and local government web resources and services.